Time;durP1;ratioP1;P1;durP2;ratioP2;P2;SDS_P1;SDS_P2;PMS_P1;PMS_P2;Temp;Humidity;BMP_temperature;BMP_pressure;BME280_temperature;BME280_humidity;BME280_pressure;Samples;Min_cycle;Max_cycle;Signal;HPM_P1;HPM_P2
2021/04/24 00:56:32;;;;;;;6.60;5.73;;;9.60;75.50;;;;;;5056226;23;20467;-66
2021/04/24 00:58:59;;;;;;;7.97;6.37;;;9.50;75.60;;;;;;4996666;28;20446;-67
2021/04/24 01:01:25;;;;;;;6.40;5.23;;;9.40;76.00;;;;;;4975757;28;20431;-67
2021/04/24 01:03:52;;;;;;;7.30;5.77;;;9.40;76.00;;;;;;4975098;28;20442;-66
2021/04/24 01:06:18;;;;;;;9.40;5.67;;;9.40;76.70;;;;;;4974774;28;20471;-67
2021/04/24 01:08:44;;;;;;;7.30;5.77;;;9.30;76.80;;;;;;4975138;28;20459;-67
2021/04/24 01:11:11;;;;;;;11.60;6.27;;;9.30;77.00;;;;;;4974931;28;20449;-66
2021/04/24 01:13:38;;;;;;;9.00;6.70;;;9.20;77.80;;;;;;4975045;28;20439;-66
2021/04/24 01:16:05;;;;;;;7.90;5.10;;;9.20;78.20;;;;;;4974757;28;20992;-66
2021/04/24 01:18:32;;;;;;;8.10;5.40;;;9.20;78.60;;;;;;4975682;28;20458;-66
2021/04/24 01:20:59;;;;;;;8.30;6.07;;;9.10;78.90;;;;;;4991402;28;20459;-67
2021/04/24 01:23:26;;;;;;;8.47;6.63;;;9.10;79.90;;;;;;4974881;28;20457;-67
2021/04/24 01:25:53;;;;;;;7.50;5.40;;;9.10;80.70;;;;;;4974764;28;20530;-66
2021/04/24 01:28:20;;;;;;;7.53;5.53;;;9.00;80.90;;;;;;4974784;28;20522;-66
2021/04/24 01:30:46;;;;;;;5.97;5.30;;;9.00;81.80;;;;;;4974651;28;20454;-66
2021/04/24 01:33:14;;;;;;;8.47;5.50;;;9.00;83.80;;;;;;4974612;28;20454;-67
2021/04/24 01:35:43;;;;;;;7.83;5.80;;;9.00;84.10;;;;;;4977206;28;20981;-66
2021/04/24 01:38:10;;;;;;;8.20;5.73;;;9.00;83.60;;;;;;4996929;28;20431;-67
2021/04/24 01:40:38;;;;;;;7.03;5.37;;;8.90;82.30;;;;;;4975964;28;20463;-66
2021/04/24 01:43:06;;;;;;;8.73;5.07;;;8.90;81.60;;;;;;4974597;28;20822;-66
2021/04/24 01:45:33;;;;;;;6.83;5.13;;;8.90;82.10;;;;;;4974244;28;20485;-65
2021/04/24 01:48:00;;;;;;;9.33;5.73;;;8.90;83.50;;;;;;4974541;28;20486;-66
2021/04/24 01:50:29;;;;;;;7.60;6.40;;;8.90;84.30;;;;;;4974495;28;20561;-67
2021/04/24 01:52:56;;;;;;;8.07;5.43;;;8.90;84.60;;;;;;4977796;28;20450;-66
2021/04/24 01:55:25;;;;;;;6.40;5.70;;;8.80;84.40;;;;;;4981593;28;20907;-67
2021/04/24 01:57:54;;;;;;;10.50;6.07;;;8.80;85.00;;;;;;4976213;28;20450;-67
2021/04/24 02:00:24;;;;;;;8.07;5.50;;;8.80;86.50;;;;;;4974384;28;20832;-67
2021/04/24 02:02:51;;;;;;;8.60;5.70;;;8.70;85.60;;;;;;4977983;28;20454;-66
2021/04/24 02:05:18;;;;;;;6.60;5.90;;;8.70;86.20;;;;;;4996620;28;20542;-67
2021/04/24 02:07:57;;;;;;;9.27;6.50;;;8.70;86.90;;;;;;4980221;28;20489;-67
2021/04/24 02:10:24;;;;;;;9.90;5.97;;;8.60;87.50;;;;;;4979041;28;20442;-66
2021/04/24 02:12:50;;;;;;;9.77;6.30;;;8.60;87.70;;;;;;4978885;28;20454;-67
2021/04/24 02:15:17;;;;;;;8.87;5.87;;;8.50;88.40;;;;;;4979118;28;20537;-66
2021/04/24 02:17:43;;;;;;;6.23;5.60;;;8.40;90.00;;;;;;4978988;28;20454;-66
2021/04/24 02:20:11;;;;;;;6.60;6.03;;;8.40;90.00;;;;;;4977757;28;20964;-66
2021/04/24 02:22:39;;;;;;;7.53;6.77;;;8.40;90.60;;;;;;4978332;28;20466;-66
2021/04/24 02:27:41;;;;;;;8.40;6.37;;;8.10;91.80;;;;;;5957516;23;20469;-61
2021/04/24 02:30:09;;;;;;;7.37;6.10;;;8.00;92.30;;;;;;4977993;28;20474;-61
2021/04/24 02:32:38;;;;;;;9.13;6.90;;;8.00;92.80;;;;;;4977450;28;20458;-63
2021/04/24 02:35:06;;;;;;;9.97;6.20;;;8.00;93.00;;;;;;4977352;28;20454;-61
2021/04/24 02:37:32;;;;;;;8.17;6.07;;;7.90;93.40;;;;;;4977491;28;20545;-62
2021/04/24 02:39:58;;;;;;;10.33;6.47;;;7.80;94.00;;;;;;4957874;29;20526;-64
2021/04/24 02:42:29;;;;;;;9.30;5.90;;;7.80;94.40;;;;;;4957928;29;20550;-62
2021/04/24 02:44:57;;;;;;;6.93;6.23;;;7.80;94.80;;;;;;4957755;29;20436;-64
2021/04/24 02:47:24;;;;;;;8.23;6.20;;;7.70;95.20;;;;;;4957825;29;20460;-62
2021/04/24 02:49:52;;;;;;;6.90;5.83;;;7.70;95.60;;;;;;4958317;29;20530;-64
2021/04/24 02:52:18;;;;;;;8.63;6.00;;;7.70;95.90;;;;;;4958003;29;20459;-64
2021/04/24 02:54:44;;;;;;;8.13;6.27;;;7.60;96.50;;;;;;4957618;29;20460;-63
2021/04/24 02:57:10;;;;;;;12.93;7.17;;;7.60;96.90;;;;;;4957332;29;21009;-63
2021/04/24 02:59:37;;;;;;;7.40;6.37;;;7.60;97.30;;;;;;4957490;29;20472;-62
2021/04/24 03:02:04;;;;;;;9.53;7.07;;;7.70;98.20;;;;;;4957545;29;20452;-62
2021/04/24 03:04:30;;;;;;;7.23;6.53;;;7.70;98.30;;;;;;4957142;29;20525;-62
2021/04/24 03:06:57;;;;;;;13.30;7.37;;;7.70;97.60;;;;;;4958007;29;20459;-62
2021/04/24 03:09:23;;;;;;;8.60;7.03;;;7.60;97.40;;;;;;4957448;29;20483;-63
2021/04/24 03:11:49;;;;;;;10.27;7.23;;;7.60;98.20;;;;;;4958071;29;20489;-63
2021/04/24 03:14:16;;;;;;;11.43;7.60;;;7.60;98.60;;;;;;4958951;29;20467;-63
2021/04/24 03:16:42;;;;;;;10.70;7.30;;;7.60;99.10;;;;;;4958751;28;20455;-62
2021/04/24 03:19:09;;;;;;;12.60;7.43;;;7.50;98.80;;;;;;4958042;29;20527;-64
2021/04/24 03:21:36;;;;;;;9.77;6.80;;;7.50;99.10;;;;;;4956829;29;20455;-63
2021/04/24 03:24:04;;;;;;;7.80;7.00;;;7.40;99.30;;;;;;4957819;29;20456;-64
2021/04/24 03:26:31;;;;;;;13.17;7.20;;;7.40;99.90;;;;;;4957878;29;20456;-63
2021/04/24 03:28:57;;;;;;;9.93;6.37;;;7.50;99.90;;;;;;4956672;29;20811;-63
2021/04/24 03:31:24;;;;;;;11.67;6.63;;;7.40;99.90;;;;;;4957080;29;20466;-63
2021/04/24 03:33:50;;;;;;;9.30;6.97;;;7.40;99.90;;;;;;4956996;29;20459;-63
2021/04/24 03:36:16;;;;;;;7.63;6.23;;;7.30;99.90;;;;;;4956864;29;20482;-63
2021/04/24 03:38:43;;;;;;;8.47;7.27;;;7.30;99.90;;;;;;4957401;29;20526;-63
2021/04/24 03:41:10;;;;;;;8.23;6.90;;;7.30;99.90;;;;;;4956795;29;20498;-63
2021/04/24 03:43:37;;;;;;;11.50;7.23;;;7.30;99.90;;;;;;4956645;29;20455;-63
2021/04/24 03:46:04;;;;;;;10.03;6.80;;;7.30;99.90;;;;;;4956678;29;20451;-63
2021/04/24 03:48:30;;;;;;;10.50;6.67;;;7.30;99.90;;;;;;4956870;29;20491;-64
2021/04/24 03:50:57;;;;;;;8.77;6.27;;;7.20;99.90;;;;;;4956651;29;20461;-63
2021/04/24 03:53:23;;;;;;;13.80;7.80;;;7.10;99.90;;;;;;4956500;29;20455;-64
2021/04/24 03:55:49;;;;;;;12.57;7.00;;;7.00;99.90;;;;;;4957556;29;20471;-63
2021/04/24 03:58:16;;;;;;;8.43;6.80;;;6.90;99.90;;;;;;4956095;29;20472;-64
2021/04/24 04:00:42;;;;;;;11.10;6.37;;;6.90;99.90;;;;;;4956280;29;20463;-62
2021/04/24 04:03:09;;;;;;;10.23;7.53;;;6.90;99.90;;;;;;4956239;29;20950;-62
2021/04/24 04:05:37;;;;;;;9.53;6.70;;;6.90;99.90;;;;;;4956372;29;20467;-62
2021/04/24 04:08:05;;;;;;;8.57;7.13;;;6.90;99.90;;;;;;4956332;29;20491;-62
2021/04/24 04:10:32;;;;;;;9.93;6.60;;;6.90;99.90;;;;;;4959928;29;20822;-63
2021/04/24 04:13:00;;;;;;;9.63;6.00;;;6.80;99.90;;;;;;4958360;29;20828;-62
2021/04/24 04:15:28;;;;;;;9.47;6.07;;;6.80;99.90;;;;;;4956461;29;20455;-63
2021/04/24 04:17:57;;;;;;;12.10;7.33;;;6.80;99.90;;;;;;4956163;29;20479;-63
2021/04/24 04:20:25;;;;;;;8.07;6.37;;;6.70;99.90;;;;;;4955949;29;20487;-63
2021/04/24 04:22:51;;;;;;;8.93;6.13;;;6.70;99.90;;;;;;4955971;29;20456;-62
2021/04/24 04:25:17;;;;;;;10.30;6.90;;;6.70;99.90;;;;;;4956119;29;20440;-62
2021/04/24 04:27:44;;;;;;;8.67;6.97;;;6.60;99.90;;;;;;4954865;28;20455;-63
2021/04/24 04:30:12;;;;;;;8.17;7.10;;;6.50;99.90;;;;;;4955931;29;20444;-63
2021/04/24 04:32:40;;;;;;;12.20;6.37;;;6.50;99.90;;;;;;4955976;29;20519;-62
2021/04/24 04:35:08;;;;;;;8.30;6.80;;;6.50;99.90;;;;;;4956068;29;20459;-62
2021/04/24 04:37:35;;;;;;;13.40;7.37;;;6.50;99.90;;;;;;4955803;29;20458;-62
2021/04/24 04:40:01;;;;;;;10.10;7.20;;;6.50;99.90;;;;;;4955818;29;20818;-63
2021/04/24 04:42:27;;;;;;;7.60;6.90;;;6.50;99.90;;;;;;4955737;29;20511;-63
2021/04/24 04:44:54;;;;;;;9.43;6.10;;;6.40;99.90;;;;;;4955737;29;20451;-64
2021/04/24 04:47:20;;;;;;;7.47;6.67;;;6.50;99.90;;;;;;4955794;29;20462;-65
2021/04/24 04:49:47;;;;;;;7.57;6.00;;;6.50;99.90;;;;;;4958570;29;20490;-63
2021/04/24 04:52:13;;;;;;;7.80;7.00;;;6.50;99.90;;;;;;4958905;29;20460;-63
2021/04/24 04:54:39;;;;;;;12.10;7.27;;;6.60;99.90;;;;;;4956433;29;20467;-65
2021/04/24 04:57:06;;;;;;;10.80;7.03;;;6.50;99.90;;;;;;4956276;29;20459;-63
2021/04/24 04:59:32;;;;;;;9.27;6.70;;;6.50;99.90;;;;;;4956264;29;20498;-63
2021/04/24 05:01:59;;;;;;;7.60;6.80;;;6.40;99.90;;;;;;4955819;29;20522;-63
2021/04/24 05:04:25;;;;;;;9.43;6.90;;;6.40;99.90;;;;;;4956112;29;20455;-63
2021/04/24 05:06:52;;;;;;;9.30;7.53;;;6.50;99.90;;;;;;4955821;29;20466;-63
2021/04/24 05:09:22;;;;;;;7.13;6.07;;;6.60;99.90;;;;;;4955592;29;20487;-65
2021/04/24 05:11:48;;;;;;;9.57;6.70;;;6.50;99.90;;;;;;4955541;29;20474;-64
2021/04/24 05:14:14;;;;;;;7.60;6.80;;;6.50;99.90;;;;;;4955912;29;20510;-65
2021/04/24 05:16:40;;;;;;;9.97;6.67;;;6.60;99.90;;;;;;4955960;29;20966;-65
2021/04/24 05:19:07;;;;;;;9.53;7.03;;;6.60;99.90;;;;;;4955995;29;20479;-64
2021/04/24 05:21:34;;;;;;;9.53;7.40;;;6.70;99.90;;;;;;4955886;29;20462;-65
2021/04/24 05:24:01;;;;;;;8.20;6.70;;;6.70;99.90;;;;;;4955771;29;20780;-64
2021/04/24 05:26:27;;;;;;;10.77;7.17;;;6.70;99.90;;;;;;4955683;29;20514;-65
2021/04/24 05:28:54;;;;;;;9.30;6.30;;;6.80;99.90;;;;;;4954975;29;20487;-65
2021/04/24 05:31:20;;;;;;;7.83;6.80;;;7.00;99.90;;;;;;4955008;29;20455;-64
2021/04/24 05:33:46;;;;;;;8.70;7.47;;;7.30;99.90;;;;;;4955678;29;20463;-64
2021/04/24 05:36:14;;;;;;;9.07;6.90;;;7.70;99.90;;;;;;4955381;29;20455;-65
2021/04/24 05:38:41;;;;;;;6.63;5.93;;;8.10;99.90;;;;;;4955172;28;20471;-65
2021/04/24 05:41:09;;;;;;;11.40;7.37;;;8.50;99.90;;;;;;4960101;29;20487;-66
2021/04/24 05:43:36;;;;;;;9.60;6.77;;;8.90;99.90;;;;;;4958798;29;20459;-65
2021/04/24 05:46:03;;;;;;;11.10;7.60;;;9.30;99.90;;;;;;4958697;29;20481;-66
2021/04/24 05:48:29;;;;;;;9.83;7.00;;;9.80;99.90;;;;;;4958941;29;20483;-64
2021/04/24 05:50:56;;;;;;;15.80;7.60;;;10.30;99.90;;;;;;4958976;29;20460;-65
2021/04/24 05:53:22;;;;;;;10.80;6.20;;;10.60;99.10;;;;;;4959051;29;20459;-65
2021/04/24 05:55:48;;;;;;;13.50;7.63;;;10.80;97.50;;;;;;4959552;29;20470;-66
2021/04/24 05:58:16;;;;;;;9.57;7.27;;;10.90;97.40;;;;;;4958699;29;20472;-65
2021/04/24 06:00:42;;;;;;;14.70;8.50;;;11.40;95.30;;;;;;4958918;29;20455;-65
2021/04/24 06:03:08;;;;;;;10.00;8.40;;;11.80;93.30;;;;;;4959005;29;20826;-66
2021/04/24 06:05:34;;;;;;;12.07;8.10;;;11.70;92.40;;;;;;4958616;29;20455;-66
2021/04/24 06:08:01;;;;;;;11.07;7.47;;;12.10;91.70;;;;;;4958467;29;20486;-64
2021/04/24 06:10:27;;;;;;;9.17;7.60;;;12.50;99.90;;;;;;4958256;29;20463;-66
2021/04/24 06:12:53;;;;;;;8.97;6.97;;;12.70;93.20;;;;;;4959164;29;20464;-64
2021/04/24 06:15:21;;;;;;;8.83;7.97;;;13.50;98.20;;;;;;4958433;29;20455;-64
2021/04/24 06:17:47;;;;;;;8.60;7.33;;;13.90;91.90;;;;;;4959882;29;20463;-64
2021/04/24 06:20:15;;;;;;;13.37;9.10;;;13.20;89.40;;;;;;4958649;29;20538;-64
2021/04/24 06:22:41;;;;;;;11.10;8.30;;;13.40;89.10;;;;;;4958453;29;20459;-65
2021/04/24 06:25:09;;;;;;;8.50;7.27;;;14.30;92.40;;;;;;4961569;29;20514;-65
2021/04/24 06:27:36;;;;;;;8.30;7.60;;;15.00;83.20;;;;;;4960898;29;20455;-66
2021/04/24 06:30:03;;;;;;;10.13;7.90;;;15.70;81.70;;;;;;4959410;29;20996;-64
2021/04/24 06:32:30;;;;;;;8.67;7.93;;;16.50;79.90;;;;;;4957886;29;20509;-65
2021/04/24 06:34:56;;;;;;;10.70;8.27;;;17.10;77.30;;;;;;4958180;29;20463;-64
2021/04/24 06:37:22;;;;;;;10.00;7.30;;;17.20;72.70;;;;;;4958079;29;20462;-65
2021/04/24 06:39:48;;;;;;;9.60;8.80;;;16.80;79.30;;;;;;4958160;29;20472;-65
2021/04/24 06:42:15;;;;;;;9.90;7.93;;;15.90;71.90;;;;;;4958102;29;20459;-65
2021/04/24 06:44:41;;;;;;;10.17;9.00;;;16.70;75.00;;;;;;4958123;29;20460;-66
2021/04/24 06:47:08;;;;;;;9.53;8.53;;;17.30;72.50;;;;;;4965243;29;20458;-66
2021/04/24 06:49:35;;;;;;;11.73;8.97;;;17.80;71.70;;;;;;4970169;29;20507;-66
2021/04/24 06:52:01;;;;;;;9.87;8.97;;;18.10;67.70;;;;;;4968954;28;20483;-67
2021/04/24 06:54:27;;;;;;;11.00;9.27;;;18.60;65.70;;;;;;4966653;29;20459;-66
2021/04/24 06:56:53;;;;;;;9.97;8.50;;;18.40;65.20;;;;;;4958548;29;21037;-66
2021/04/24 06:59:19;;;;;;;9.17;8.30;;;19.00;66.50;;;;;;4957893;29;20475;-65
2021/04/24 07:01:46;;;;;;;9.93;8.90;;;19.30;62.70;;;;;;4957931;29;20459;-66
2021/04/24 07:04:12;;;;;;;12.90;8.33;;;19.60;59.50;;;;;;4957937;29;20474;-66
2021/04/24 07:06:39;;;;;;;9.53;8.60;;;19.40;62.40;;;;;;4957743;29;20460;-66
2021/04/24 07:09:06;;;;;;;10.03;8.67;;;19.30;63.90;;;;;;4957666;29;20480;-67
2021/04/24 07:11:32;;;;;;;12.20;8.40;;;19.80;61.30;;;;;;4957842;29;20872;-66
2021/04/24 07:13:58;;;;;;;12.83;9.23;;;20.60;60.40;;;;;;4961853;29;20460;-67
2021/04/24 07:16:24;;;;;;;12.20;8.73;;;21.10;59.60;;;;;;4958944;29;20954;-66
2021/04/24 07:18:51;;;;;;;10.80;9.13;;;21.40;59.10;;;;;;4958418;29;20475;-68
2021/04/24 07:21:17;;;;;;;12.17;9.40;;;21.40;58.80;;;;;;4957596;29;20455;-67
2021/04/24 07:23:44;;;;;;;9.90;8.60;;;21.80;56.40;;;;;;4957716;29;20463;-67
2021/04/24 07:26:11;;;;;;;11.63;9.87;;;21.50;57.50;;;;;;4957471;29;20459;-66
2021/04/24 07:28:37;;;;;;;11.97;9.67;;;21.20;55.10;;;;;;4957490;29;20487;-65
2021/04/24 07:31:04;;;;;;;10.47;9.40;;;20.80;55.30;;;;;;4957791;29;20462;-66
2021/04/24 07:33:30;;;;;;;12.43;9.60;;;19.70;57.80;;;;;;4957561;29;20467;-66
2021/04/24 07:35:57;;;;;;;12.90;9.60;;;20.20;58.00;;;;;;4957372;29;20452;-65
2021/04/24 07:38:23;;;;;;;12.70;10.27;;;20.50;56.30;;;;;;4957752;29;20476;-66
2021/04/24 07:40:50;;;;;;;12.30;11.10;;;20.40;54.30;;;;;;4957467;29;20460;-65
2021/04/24 07:43:17;;;;;;;11.03;10.03;;;19.90;54.20;;;;;;4957374;29;20985;-65
2021/04/24 07:45:43;;;;;;;11.40;10.20;;;20.40;56.90;;;;;;4957354;29;20459;-64
2021/04/24 07:48:10;;;;;;;11.43;9.83;;;21.00;54.70;;;;;;4957289;29;20508;-65
2021/04/24 07:50:37;;;;;;;17.70;10.90;;;21.90;56.60;;;;;;4957047;29;20467;-65
2021/04/24 07:53:03;;;;;;;10.43;9.40;;;22.50;53.20;;;;;;4958790;29;20459;-65
2021/04/24 07:55:29;;;;;;;10.87;9.30;;;22.60;53.90;;;;;;4957223;29;20451;-66
2021/04/24 07:57:56;;;;;;;13.17;9.43;;;22.50;50.90;;;;;;4956986;29;20483;-65
2021/04/24 08:00:24;;;;;;;12.80;9.23;;;21.50;51.50;;;;;;4957439;29;20455;-65
2021/04/24 08:02:51;;;;;;;13.27;9.33;;;22.20;50.80;;;;;;4956500;28;20519;-65
2021/04/24 08:05:17;;;;;;;13.23;9.90;;;23.20;52.70;;;;;;4957070;29;20452;-65
2021/04/24 08:07:43;;;;;;;10.53;8.67;;;23.00;52.80;;;;;;4957003;29;20456;-65
2021/04/24 08:10:11;;;;;;;10.30;9.30;;;23.20;51.20;;;;;;4956589;29;20479;-66
2021/04/24 08:12:37;;;;;;;11.33;10.33;;;24.00;49.50;;;;;;4956855;29;20827;-65
2021/04/24 08:15:06;;;;;;;10.97;9.87;;;23.60;49.20;;;;;;4959026;29;20459;-66
2021/04/24 08:17:32;;;;;;;12.83;9.90;;;24.50;48.40;;;;;;4960460;29;20830;-66
2021/04/24 08:19:59;;;;;;;12.13;10.23;;;24.80;50.50;;;;;;4960187;29;20990;-65
2021/04/24 08:22:25;;;;;;;10.10;9.10;;;25.80;47.60;;;;;;4959881;29;20492;-66
2021/04/24 08:24:51;;;;;;;9.83;8.73;;;26.60;46.30;;;;;;4959186;29;20456;-67
2021/04/24 08:27:17;;;;;;;10.80;9.67;;;26.60;46.60;;;;;;4956244;29;20463;-67
2021/04/24 08:29:44;;;;;;;10.50;9.20;;;26.80;45.50;;;;;;4955642;29;20852;-66
2021/04/24 08:32:11;;;;;;;16.27;9.60;;;26.90;47.80;;;;;;4956413;29;20459;-65
2021/04/24 08:34:37;;;;;;;10.17;9.13;;;25.00;44.70;;;;;;4956140;29;20460;-66
2021/04/24 08:37:04;;;;;;;10.10;8.70;;;25.50;45.30;;;;;;4956559;29;20463;-66
2021/04/24 08:39:31;;;;;;;9.50;8.50;;;25.20;46.00;;;;;;4963441;29;20468;-64
2021/04/24 08:41:58;;;;;;;9.53;8.40;;;25.60;46.20;;;;;;4963719;29;20456;-66
2021/04/24 08:44:24;;;;;;;11.80;8.97;;;26.30;42.70;;;;;;4957426;29;20463;-66
2021/04/24 08:46:51;;;;;;;12.53;10.20;;;26.60;42.60;;;;;;4956167;29;20535;-66
2021/04/24 08:49:20;;;;;;;9.70;8.80;;;26.20;41.80;;;;;;4955896;29;20483;-66
2021/04/24 08:51:46;;;;;;;9.60;8.47;;;25.70;44.00;;;;;;4956670;29;20843;-66
2021/04/24 08:54:13;;;;;;;13.70;9.47;;;26.50;44.00;;;;;;4956307;29;20462;-66
2021/04/24 08:56:39;;;;;;;10.83;9.07;;;26.70;45.60;;;;;;4955657;29;20463;-66
2021/04/24 08:59:05;;;;;;;11.77;8.57;;;26.70;44.90;;;;;;4955660;29;20476;-66
2021/04/24 09:01:33;;;;;;;9.80;8.60;;;27.30;38.90;;;;;;4956342;29;20462;-66
2021/04/24 09:03:59;;;;;;;11.83;8.33;;;27.40;40.40;;;;;;4955513;29;20962;-66
2021/04/24 09:06:28;;;;;;;15.17;9.17;;;26.50;41.80;;;;;;4955430;29;20459;-66
2021/04/24 09:08:57;;;;;;;10.07;9.00;;;27.20;40.30;;;;;;4955333;29;20483;-66
2021/04/24 09:11:24;;;;;;;14.07;9.60;;;27.60;43.00;;;;;;4955147;29;20950;-66
2021/04/24 09:14:00;;;;;;;14.67;10.80;;;27.80;41.50;;;;;;4954815;28;20455;-66
2021/04/24 09:16:27;;;;;;;17.17;12.00;;;27.20;41.40;;;;;;4955280;29;20459;-66
2021/04/24 09:18:54;;;;;;;10.13;9.07;;;27.70;41.50;;;;;;4955417;29;20475;-66
2021/04/24 09:21:22;;;;;;;12.30;9.23;;;27.70;44.70;;;;;;4955174;29;20492;-67
2021/04/24 09:23:49;;;;;;;10.70;9.60;;;28.60;42.60;;;;;;4956046;29;20860;-66
2021/04/24 09:26:17;;;;;;;17.93;10.43;;;28.70;42.60;;;;;;4956267;29;20467;-66
2021/04/24 09:28:45;;;;;;;11.50;10.30;;;27.90;42.60;;;;;;4955389;29;20483;-65
2021/04/24 09:31:15;;;;;;;20.37;11.00;;;28.30;41.80;;;;;;4955990;29;20533;-67
2021/04/24 09:33:42;;;;;;;14.53;10.23;;;28.20;42.50;;;;;;4956939;29;20482;-67
2021/04/24 09:36:10;;;;;;;12.73;10.10;;;28.50;40.60;;;;;;4956838;29;20468;-66
2021/04/24 09:38:38;;;;;;;11.03;9.73;;;29.20;41.20;;;;;;4955999;29;20472;-66
2021/04/24 09:41:12;;;;;;;11.00;9.43;;;29.40;36.00;;;;;;4956026;29;20864;-67
2021/04/24 09:43:57;;;;;;;13.40;9.97;;;28.40;37.20;;;;;;4956291;29;20440;-67
2021/04/24 09:46:25;;;;;;;13.40;9.90;;;28.40;37.60;;;;;;4956799;29;20514;-67
2021/04/24 09:49:07;;;;;;;10.30;9.20;;;27.50;37.80;;;;;;4955912;29;20519;-66
2021/04/24 09:51:40;;;;;;;12.67;9.90;;;27.60;40.70;;;;;;4956180;29;20440;-65
2021/04/24 09:54:08;;;;;;;15.07;10.73;;;28.20;39.50;;;;;;4955359;29;20911;-66
2021/04/24 09:56:35;;;;;;;12.20;11.17;;;27.70;39.80;;;;;;4956118;29;20444;-66
2021/04/24 09:59:04;;;;;;;11.03;9.90;;;27.70;40.30;;;;;;4955964;29;20526;-66
2021/04/24 10:01:32;;;;;;;10.23;9.33;;;27.90;38.40;;;;;;4956559;29;20806;-67
2021/04/24 10:03:59;;;;;;;9.77;8.77;;;27.80;39.80;;;;;;4955943;29;20459;-66
2021/04/24 10:06:36;;;;;;;10.50;9.00;;;28.70;38.00;;;;;;4955534;29;20474;-65
2021/04/24 10:09:17;;;;;;;11.47;10.27;;;28.80;37.80;;;;;;4955480;29;20487;-67
2021/04/24 10:11:47;;;;;;;17.13;10.67;;;28.10;38.60;;;;;;4955208;29;20455;-68
2021/04/24 10:14:13;;;;;;;12.77;9.40;;;27.90;40.20;;;;;;4956585;29;20460;-67
2021/04/24 10:16:43;;;;;;;11.13;10.00;;;28.20;40.70;;;;;;4957772;29;20459;-68
2021/04/24 10:19:11;;;;;;;13.00;10.57;;;28.10;38.30;;;;;;4955234;29;20476;-67
2021/04/24 10:21:38;;;;;;;10.70;9.60;;;28.50;34.20;;;;;;4957278;29;20455;-68
2021/04/24 10:24:07;;;;;;;10.57;9.47;;;28.60;37.20;;;;;;4955860;29;20455;-67
2021/04/24 10:26:33;;;;;;;11.23;10.13;;;29.40;35.20;;;;;;4957142;28;20942;-68
2021/04/24 10:29:01;;;;;;;13.63;10.97;;;28.90;35.60;;;;;;4959026;29;20495;-67
2021/04/24 10:31:27;;;;;;;13.07;10.33;;;29.30;32.60;;;;;;4959714;29;20455;-68
2021/04/24 10:33:56;;;;;;;13.37;11.80;;;29.20;33.50;;;;;;4959257;29;20485;-67
2021/04/24 10:36:22;;;;;;;12.50;10.00;;;29.20;33.00;;;;;;4959122;29;20455;-67
2021/04/24 10:38:50;;;;;;;11.40;9.30;;;29.10;36.30;;;;;;4958935;29;20476;-68
2021/04/24 10:41:27;;;;;;;9.67;8.77;;;29.60;34.20;;;;;;4959080;29;20456;-68
2021/04/24 10:43:57;;;;;;;11.17;10.10;;;29.40;35.20;;;;;;4959757;29;20977;-67
2021/04/24 10:46:27;;;;;;;9.60;8.80;;;29.50;35.80;;;;;;4959543;29;20440;-67
2021/04/24 10:49:19;;;;;;;11.07;9.97;;;29.60;35.20;;;;;;4970637;29;20490;-68
2021/04/24 10:52:19;;;;;;;11.43;10.33;;;29.60;36.90;;;;;;4970294;29;20996;-67
2021/04/24 10:55:25;;;;;;;12.97;10.70;;;29.10;38.60;;;;;;4921153;29;20438;-67
2021/04/24 10:57:54;;;;;;;11.30;9.80;;;28.40;35.70;;;;;;4959608;29;20798;-69
2021/04/24 11:00:23;;;;;;;8.90;8.00;;;27.80;37.50;;;;;;4959023;29;20455;-67
2021/04/24 11:02:52;;;;;;;11.53;9.43;;;27.80;37.30;;;;;;4959145;29;20502;-68
2021/04/24 11:05:23;;;;;;;10.90;9.80;;;27.40;37.70;;;;;;4958912;29;20459;-67
2021/04/24 11:08:09;;;;;;;10.67;8.00;;;26.90;36.70;;;;;;4959121;29;20436;-66
2021/04/24 11:10:42;;;;;;;9.53;8.50;;;26.80;40.80;;;;;;4958698;29;20479;-67
2021/04/24 11:13:10;;;;;;;8.90;8.07;;;27.20;38.00;;;;;;4959603;29;20843;-66
2021/04/24 11:15:38;;;;;;;10.80;8.63;;;27.30;37.30;;;;;;4959018;29;20459;-66
2021/04/24 11:18:08;;;;;;;9.50;8.40;;;27.30;35.70;;;;;;4958859;29;20487;-66
2021/04/24 11:20:55;;;;;;;9.80;8.07;;;26.90;37.20;;;;;;4958955;29;20440;-68
2021/04/24 11:23:48;;;;;;;12.93;8.43;;;26.30;36.70;;;;;;4958580;29;20443;-66
2021/04/24 11:26:19;;;;;;;9.87;8.83;;;26.50;36.40;;;;;;4958255;29;20440;-68
2021/04/24 11:29:03;;;;;;;9.60;8.70;;;26.30;33.30;;;;;;4957920;29;20500;-68
2021/04/24 11:31:58;;;;;;;10.30;8.60;;;26.30;36.20;;;;;;4958153;29;20447;-67
2021/04/24 11:34:38;;;;;;;14.30;9.63;;;25.60;35.30;;;;;;4958085;29;21018;-68
2021/04/24 11:37:28;;;;;;;10.30;9.30;;;25.20;37.80;;;;;;4957695;28;20452;-69
2021/04/24 11:40:24;;;;;;;10.03;8.70;;;25.10;36.10;;;;;;4957795;29;20475;-68
2021/04/24 11:42:59;;;;;;;10.20;8.60;;;24.30;36.10;;;;;;4945536;29;20567;-66
2021/04/24 11:45:59;;;;;;;11.23;9.50;;;24.30;38.80;;;;;;4957479;29;20806;-68
2021/04/24 11:49:09;;;;;;;9.53;8.63;;;23.80;36.50;;;;;;4953245;29;20566;-66
2021/04/24 11:51:45;;;;;;;9.00;8.10;;;23.80;36.10;;;;;;4957896;29;20894;-67
2021/04/24 11:54:13;;;;;;;9.77;8.40;;;23.60;37.90;;;;;;4957651;29;20498;-67
2021/04/24 11:56:44;;;;;;;8.03;7.30;;;23.60;38.60;;;;;;4957711;29;20456;-66
2021/04/24 11:59:10;;;;;;;7.83;7.13;;;23.60;37.70;;;;;;4957140;29;20522;-67
2021/04/24 12:01:37;;;;;;;13.47;8.30;;;23.30;35.10;;;;;;4957338;29;20511;-66
2021/04/24 12:04:03;;;;;;;10.70;9.70;;;22.70;38.40;;;;;;4957090;29;20452;-67
2021/04/24 12:06:48;;;;;;;11.23;8.33;;;22.70;40.80;;;;;;4957112;29;21058;-67
2021/04/24 12:09:15;;;;;;;8.77;7.97;;;22.80;40.50;;;;;;4957042;29;20488;-66
2021/04/24 12:11:53;;;;;;;12.97;9.37;;;23.10;39.60;;;;;;4956690;29;20954;-66
2021/04/24 12:14:20;;;;;;;10.40;8.57;;;23.10;35.40;;;;;;4956566;29;20887;-66
2021/04/24 12:16:48;;;;;;;9.73;8.73;;;22.90;37.10;;;;;;4957008;29;20460;-66
2021/04/24 12:19:33;;;;;;;10.27;9.20;;;23.00;39.00;;;;;;4956808;29;20499;-67
2021/04/24 12:22:03;;;;;;;8.93;8.03;;;22.70;37.50;;;;;;4960494;29;20467;-66
2021/04/24 12:24:29;;;;;;;19.43;8.17;;;22.90;38.50;;;;;;4959066;29;20511;-66
2021/04/24 12:26:55;;;;;;;8.77;7.83;;;23.00;40.80;;;;;;4957044;29;20460;-68
2021/04/24 12:29:49;;;;;;;9.17;8.27;;;23.30;38.70;;;;;;4956016;29;20491;-65
2021/04/24 12:32:17;;;;;;;9.80;7.97;;;23.70;37.40;;;;;;4956589;29;20904;-66
2021/04/24 12:34:43;;;;;;;8.43;7.53;;;23.50;36.80;;;;;;4956427;29;20463;-66
2021/04/24 12:37:13;;;;;;;8.60;6.63;;;23.40;34.90;;;;;;4956410;29;20456;-66
2021/04/24 12:39:40;;;;;;;6.20;5.60;;;23.20;34.80;;;;;;4956332;29;20474;-67
2021/04/24 12:42:10;;;;;;;8.90;8.10;;;23.70;38.00;;;;;;4956734;29;20451;-67
2021/04/24 12:44:37;;;;;;;9.03;7.30;;;23.60;34.70;;;;;;4958285;29;20451;-67
2021/04/24 12:47:03;;;;;;;13.80;7.63;;;23.80;34.60;;;;;;4956206;29;20459;-66
2021/04/24 12:49:30;;;;;;;10.10;9.10;;;23.60;37.20;;;;;;4955456;28;20510;-66
2021/04/24 12:52:01;;;;;;;10.43;8.30;;;23.30;35.20;;;;;;4955972;29;20459;-66
2021/04/24 12:54:29;;;;;;;9.03;8.23;;;23.10;37.40;;;;;;4956292;29;20453;-67
2021/04/24 12:57:13;;;;;;;8.97;8.07;;;22.70;36.50;;;;;;4955947;29;20825;-68
2021/04/24 12:59:39;;;;;;;9.23;8.27;;;22.80;37.40;;;;;;4955819;29;20492;-67
2021/04/24 13:02:06;;;;;;;9.07;8.23;;;23.00;37.00;;;;;;4955839;29;20460;-67
2021/04/24 13:04:32;;;;;;;8.40;7.67;;;23.00;36.60;;;;;;4955661;29;20603;-68
2021/04/24 13:07:01;;;;;;;8.00;7.23;;;23.10;40.20;;;;;;4955584;29;20526;-67
2021/04/24 13:09:36;;;;;;;10.43;8.90;;;23.20;43.20;;;;;;4955331;29;20486;-67
2021/04/24 13:12:08;;;;;;;9.00;8.10;;;23.50;37.20;;;;;;4955504;29;20463;-67
2021/04/24 13:14:42;;;;;;;9.03;8.13;;;23.60;37.10;;;;;;4955552;29;20460;-67
2021/04/24 13:17:10;;;;;;;10.57;8.80;;;23.60;35.90;;;;;;4955551;29;20443;-67
2021/04/24 13:19:50;;;;;;;13.13;9.00;;;23.20;35.20;;;;;;4955073;29;20997;-67
2021/04/24 13:22:37;;;;;;;9.33;8.47;;;23.30;36.40;;;;;;4955221;29;20443;-68
2021/04/24 13:25:07;;;;;;;8.63;7.80;;;23.40;37.00;;;;;;4955175;29;20443;-67
2021/04/24 13:27:34;;;;;;;13.00;8.90;;;23.70;37.30;;;;;;4956601;29;20444;-67
2021/04/24 13:30:00;;;;;;;11.37;9.30;;;23.90;38.10;;;;;;4955415;29;20491;-67
2021/04/24 13:32:26;;;;;;;11.37;10.17;;;23.90;39.60;;;;;;4955253;29;20946;-67
2021/04/24 13:34:56;;;;;;;10.90;9.13;;;23.90;38.90;;;;;;4966443;29;20526;-67
2021/04/24 13:37:24;;;;;;;11.43;10.43;;;24.10;37.70;;;;;;4965527;29;20462;-67
2021/04/24 13:39:54;;;;;;;10.50;9.07;;;23.50;38.40;;;;;;4956002;29;20474;-67
2021/04/24 13:42:25;;;;;;;11.60;9.53;;;23.40;37.30;;;;;;4955961;29;20459;-67
2021/04/24 13:45:05;;;;;;;11.80;9.63;;;23.70;37.80;;;;;;4955398;29;20498;-67
2021/04/24 13:47:31;;;;;;;11.43;10.00;;;23.70;38.70;;;;;;4955368;29;20450;-67
2021/04/24 13:49:57;;;;;;;10.47;9.27;;;23.80;37.60;;;;;;4955300;29;20488;-66
2021/04/24 13:52:24;;;;;;;8.90;8.03;;;23.50;37.40;;;;;;4955415;29;20510;-67